Sample Charts Sidebar
> Live data! Your data is on the web site for you to access within minutes
 
> Detailed data is easily downloaded as data file, which can be opened with Excel
 
> Charts can be customised if necessary
  Chart 1
 

(A maximum of 50 rows are displayed here. Use "Export Data" to see all rows in the date range.)
Date Collected Temperature
(Celcius)
Wind-chill
(Celcius)
Wind Speed
(km/hr)
Gust
(km/hr)
Wind Direction
(degrees)
2019-04-19 16:00 17.9 14.9 7 21 355
2019-04-19 15:00 17.9 14.5 8 22 344
2019-04-19 14:00 17.8 14.3 8 20 353
2019-04-19 13:00 18.3 15.0 8 19 9
2019-04-19 12:00 19.0 15.4 9 27 353
2019-04-19 11:00 18.3 13.6 10 25 359
2019-04-19 10:00 16.3 12.9 7 21 348
2019-04-19 09:00 17.2 13.4 8 22 348
2019-04-19 08:00 17.1 14.5 6 21 347
2019-04-19 07:00 17.1 13.6 8 19 359
2019-04-19 06:00 17.4 15.0 6 16 3
2019-04-19 05:00 17.1 15.4 5 15 13
2019-04-19 04:00 17.5 16.6 4 11 19
2019-04-19 03:00 17.7 15.2 7 19 357
2019-04-19 02:00 17.8 16.3 5 12 14
2019-04-19 01:00 17.9 16.4 5 19 342
2019-04-19 00:00 18.3 17.6 4 8 24
2019-04-18 23:00 18.3 16.7 5 12 18
2019-04-18 22:00 18.5 15.8 7 19 10
2019-04-18 21:00 18.4 16.6 5 16 18
2019-04-18 20:00 18.5 15.8 7 19 347
2019-04-18 19:00 19.9 17.5 7 21 346
2019-04-18 18:00 20.0 16.6 9 19 347
2019-04-18 17:00 20.4 17.2 9 25 351
2019-04-18 16:00 20.7 18.5 7 21 5
2019-04-18 15:00 20.7 19.1 5 15 350
2019-04-18 14:00 20.4 16.5 10 28 348
2019-04-18 13:00 20.0 16.7 9 30 3
2019-04-18 12:00 19.9 16.8 8 23 6
2019-04-18 11:00 20.8 17.3 9 28 3
2019-04-18 10:00 20.5 17.4 8 21 13
2019-04-18 09:00 19.7 15.7 9 24 16
2019-04-18 08:00 18.9 14.9 9 23 25
2019-04-18 07:00 18.5 16.2 6 15 28
2019-04-18 06:00 18.4 15.4 7 20 28
2019-04-18 05:00 18.3 15.4 7 16 31
2019-04-18 04:00 18.3 13.8 10 22 19
2019-04-18 03:00 18.3 15.0 8 19 28
2019-04-18 02:00 18.5 15.1 8 22 13
2019-04-18 01:00 18.8 15.3 8 21 15
2019-04-18 00:00 18.8 15.4 8 22 355
2019-04-17 23:00 17.5 15.7 5 20 19
2019-04-17 22:00 17.7 15.6 6 13 20
2019-04-17 21:00 18.8 16.4 7 16 27
2019-04-17 20:00 18.8 15.7 8 20 353
2019-04-17 19:00 18.8 16.7 6 14 12
2019-04-17 18:00 18.8 15.4 8 23 6
2019-04-17 17:00 18.2 16.0 6 12 41
2019-04-17 16:00 17.8 17.8 2 5 17
2019-04-17 15:00 18.2 17.1 4 10 33